Time;durP1;ratioP1;P1;durP2;ratioP2;P2;SDS_P1;SDS_P2;PMS_P1;PMS_P2;Temp;Humidity;BMP_temperature;BMP_pressure;BME280_temperature;BME280_humidity;BME280_pressure;Samples;Min_cycle;Max_cycle;Signal;HPM_P1;HPM_P2
2022/04/16 00:01:38;;;;;;;11.90;9.85;;;9.50;99.90;;;;;;5045523;28;20412;-43
2022/04/16 00:04:04;;;;;;;10.98;9.88;;;9.50;99.90;;;;;;5046418;28;20166;-43
2022/04/16 00:06:29;;;;;;;10.25;9.15;;;9.50;99.90;;;;;;5044811;28;20104;-42
2022/04/16 00:09:01;;;;;;;12.55;9.23;;;9.50;99.90;;;;;;5046007;28;20033;-43
2022/04/16 00:11:27;;;;;;;9.77;8.70;;;9.40;99.90;;;;;;5045908;28;20025;-42
2022/04/16 00:13:52;;;;;;;12.02;9.65;;;9.40;99.90;;;;;;5044712;28;20021;-43
2022/04/16 00:16:18;;;;;;;12.40;9.88;;;9.30;99.90;;;;;;5046215;28;20054;-43
2022/04/16 00:18:48;;;;;;;14.75;10.63;;;9.30;99.90;;;;;;5049463;28;20079;-42
2022/04/16 00:21:13;;;;;;;12.75;10.93;;;9.20;99.90;;;;;;5048911;28;20044;-43
2022/04/16 00:23:40;;;;;;;10.48;8.73;;;9.20;99.90;;;;;;5049338;28;20033;-43
2022/04/16 00:26:07;;;;;;;11.60;9.48;;;9.20;99.90;;;;;;5049975;28;20072;-42
2022/04/16 00:28:33;;;;;;;13.40;10.60;;;9.10;99.90;;;;;;5048341;28;20447;-43
2022/04/16 00:30:59;;;;;;;14.00;11.20;;;9.10;99.90;;;;;;5049624;28;20025;-42
2022/04/16 00:33:25;;;;;;;13.20;10.27;;;9.10;99.90;;;;;;5049628;28;20162;-42
2022/04/16 00:35:51;;;;;;;11.65;10.07;;;9.10;99.90;;;;;;5048926;28;20059;-41
2022/04/16 00:38:17;;;;;;;15.25;11.02;;;9.00;99.90;;;;;;5049383;28;20028;-43
2022/04/16 00:40:43;;;;;;;14.20;10.85;;;9.00;99.90;;;;;;5049078;28;20037;-43
2022/04/16 00:43:19;;;;;;;11.95;10.55;;;8.90;99.90;;;;;;5049192;28;20396;-43
2022/04/16 00:45:45;;;;;;;12.68;10.82;;;8.90;99.90;;;;;;5049561;28;20173;-42
2022/04/16 00:48:10;;;;;;;10.32;8.73;;;8.90;99.90;;;;;;5048774;28;20551;-42
2022/04/16 00:50:36;;;;;;;12.60;10.07;;;8.90;99.90;;;;;;5048694;28;20029;-42
2022/04/16 00:53:02;;;;;;;15.93;12.10;;;8.90;99.90;;;;;;5050145;28;20044;-43
2022/04/16 00:55:27;;;;;;;14.00;11.65;;;8.80;99.90;;;;;;5048358;28;20017;-43
2022/04/16 00:57:54;;;;;;;13.52;11.70;;;8.80;99.90;;;;;;5049523;28;20125;-43
2022/04/16 01:00:20;;;;;;;14.38;11.45;;;8.80;99.90;;;;;;5048989;28;20033;-43
2022/04/16 01:02:46;;;;;;;13.13;11.63;;;8.80;99.90;;;;;;5047897;28;20040;-40
2022/04/16 01:05:12;;;;;;;15.82;12.05;;;8.70;99.90;;;;;;5049501;28;20025;-42
2022/04/16 01:07:54;;;;;;;13.25;10.55;;;8.70;99.90;;;;;;5048833;28;20342;-43
2022/04/16 01:10:21;;;;;;;14.43;12.10;;;8.70;99.90;;;;;;5048274;28;20044;-42
2022/04/16 01:12:46;;;;;;;16.45;12.93;;;8.70;99.90;;;;;;5048688;28;20491;-43
2022/04/16 01:15:13;;;;;;;15.52;13.25;;;8.60;99.90;;;;;;5048894;28;20021;-44
2022/04/16 01:17:39;;;;;;;15.02;12.38;;;8.50;99.90;;;;;;5048068;28;20033;-43
2022/04/16 01:20:06;;;;;;;16.83;12.20;;;8.60;99.90;;;;;;5048924;28;20469;-43
2022/04/16 01:22:31;;;;;;;16.15;13.27;;;8.60;99.90;;;;;;5047675;28;20047;-43
2022/04/16 01:25:00;;;;;;;16.83;13.60;;;8.50;99.90;;;;;;5047957;28;20017;-43
2022/04/16 01:27:25;;;;;;;15.65;12.43;;;8.50;99.90;;;;;;5047433;28;20090;-42
2022/04/16 01:29:53;;;;;;;18.98;15.07;;;8.50;99.90;;;;;;5048626;28;20435;-44
2022/04/16 01:32:19;;;;;;;17.13;14.13;;;8.50;99.90;;;;;;5047512;28;20043;-42
2022/04/16 01:34:45;;;;;;;18.60;14.48;;;8.50;99.90;;;;;;5048643;28;20232;-43
2022/04/16 01:37:12;;;;;;;16.35;14.63;;;8.40;99.90;;;;;;5048118;28;20088;-43
2022/04/16 01:39:38;;;;;;;21.52;15.68;;;8.40;99.90;;;;;;5047576;28;20388;-45
2022/04/16 01:42:04;;;;;;;20.67;16.10;;;8.40;99.90;;;;;;5048664;28;20045;-43
2022/04/16 01:44:29;;;;;;;17.15;15.25;;;8.40;99.90;;;;;;5047542;28;20074;-43
2022/04/16 01:46:56;;;;;;;20.40;15.70;;;8.40;99.90;;;;;;5048120;28;20098;-43
2022/04/16 01:49:21;;;;;;;22.35;16.98;;;8.30;99.90;;;;;;5047873;28;20036;-44
2022/04/16 01:51:48;;;;;;;20.17;16.17;;;8.30;99.90;;;;;;5047139;28;20029;-44
2022/04/16 01:54:14;;;;;;;17.73;15.18;;;8.30;99.90;;;;;;5048662;28;20120;-43
2022/04/16 01:56:40;;;;;;;19.20;15.38;;;8.20;99.90;;;;;;5048172;28;20689;-42
2022/04/16 01:59:08;;;;;;;20.38;15.90;;;8.20;99.90;;;;;;5035942;28;20056;-43
2022/04/16 02:01:34;;;;;;;20.92;15.02;;;8.20;99.90;;;;;;5047178;28;20029;-42
2022/04/16 02:03:59;;;;;;;18.98;15.98;;;8.20;99.90;;;;;;5048224;28;20111;-43
2022/04/16 02:06:28;;;;;;;17.75;15.25;;;8.10;99.90;;;;;;5046763;28;20531;-42
2022/04/16 02:08:53;;;;;;;18.38;14.88;;;8.10;99.90;;;;;;5048366;28;20112;-43
2022/04/16 02:11:19;;;;;;;18.45;15.02;;;8.10;99.90;;;;;;5047435;28;20186;-42
2022/04/16 02:13:44;;;;;;;18.40;14.65;;;8.10;99.90;;;;;;5046487;28;20043;-45
2022/04/16 02:16:10;;;;;;;16.40;13.80;;;8.00;99.90;;;;;;5048446;28;20021;-44
2022/04/16 02:18:36;;;;;;;18.05;13.50;;;8.00;99.90;;;;;;5046851;28;20479;-44
2022/04/16 02:21:02;;;;;;;18.23;14.77;;;8.10;99.90;;;;;;5046862;28;20468;-44
2022/04/16 02:23:28;;;;;;;17.80;14.48;;;8.00;99.90;;;;;;5047221;28;20044;-43
2022/04/16 02:25:54;;;;;;;19.25;13.70;;;8.00;99.90;;;;;;5048491;28;20465;-42
2022/04/16 02:28:23;;;;;;;16.38;14.02;;;7.90;99.90;;;;;;5046516;28;20479;-44
2022/04/16 02:30:49;;;;;;;18.35;14.95;;;7.90;99.90;;;;;;5047912;28;20052;-43
2022/04/16 02:33:15;;;;;;;15.43;11.90;;;7.90;99.90;;;;;;5046982;28;20028;-43
2022/04/16 02:35:41;;;;;;;15.85;12.52;;;7.90;99.90;;;;;;5046783;28;20040;-41
2022/04/16 02:38:07;;;;;;;15.68;12.45;;;7.90;99.90;;;;;;5047071;28;20040;-44
2022/04/16 02:40:33;;;;;;;18.60;14.15;;;7.80;99.90;;;;;;5045974;28;20021;-41
2022/04/16 02:42:58;;;;;;;17.10;14.02;;;7.80;99.90;;;;;;5046375;28;20039;-43
2022/04/16 02:48:08;;;;;;;18.27;13.85;;;7.80;99.90;;;;;;5046450;28;20068;-43
2022/04/16 02:50:34;;;;;;;15.55;12.65;;;7.80;99.90;;;;;;5046754;28;20472;-43
2022/04/16 02:53:00;;;;;;;18.88;13.95;;;7.70;99.90;;;;;;5047184;28;20112;-44
2022/04/16 02:55:27;;;;;;;19.17;15.00;;;7.70;99.90;;;;;;5045647;28;20067;-43
2022/04/16 02:57:52;;;;;;;18.70;14.48;;;7.70;99.90;;;;;;5047046;28;20141;-41
2022/04/16 03:00:22;;;;;;;16.65;13.23;;;7.70;99.90;;;;;;5046477;28;20544;-43
2022/04/16 03:02:48;;;;;;;18.65;14.65;;;7.60;99.90;;;;;;5045893;28;20041;-43
2022/04/16 03:05:14;;;;;;;19.08;15.25;;;7.60;99.90;;;;;;5047032;28;20021;-43
2022/04/16 03:07:40;;;;;;;17.35;13.73;;;7.60;99.90;;;;;;5046928;28;20094;-45
2022/04/16 03:10:10;;;;;;;17.33;14.40;;;7.60;99.90;;;;;;5046044;28;20029;-42
2022/04/16 03:12:42;;;;;;;19.63;16.27;;;7.60;99.90;;;;;;5046555;28;20059;-42
2022/04/16 03:17:54;;;;;;;19.90;15.32;;;7.50;99.90;;;;;;5046100;28;20391;-43
2022/04/16 03:20:20;;;;;;;20.08;14.88;;;7.50;99.90;;;;;;5046082;28;20025;-43
2022/04/16 03:22:45;;;;;;;16.52;13.80;;;7.50;99.90;;;;;;5046047;28;20037;-42
2022/04/16 03:25:11;;;;;;;16.60;13.50;;;7.50;99.90;;;;;;5046193;28;20032;-42
2022/04/16 03:27:37;;;;;;;22.52;16.40;;;7.40;99.90;;;;;;5046017;28;20473;-43
2022/04/16 03:30:06;;;;;;;18.90;15.43;;;7.50;99.90;;;;;;5045919;28;20025;-44
2022/04/16 03:32:32;;;;;;;20.10;14.95;;;7.40;99.90;;;;;;5045744;28;20431;-41
2022/04/16 03:34:58;;;;;;;16.30;12.80;;;7.50;99.90;;;;;;5046499;28;20028;-42
2022/04/16 03:37:27;;;;;;;18.05;15.07;;;7.40;99.90;;;;;;5046216;28;20079;-43
2022/04/16 03:39:53;;;;;;;20.02;15.38;;;7.40;99.90;;;;;;5045892;28;20078;-44
2022/04/16 03:42:19;;;;;;;17.52;14.95;;;7.40;99.90;;;;;;5045857;28;20041;-43
2022/04/16 03:44:44;;;;;;;18.05;15.43;;;7.40;99.90;;;;;;5045622;28;20021;-43
2022/04/16 03:47:11;;;;;;;18.25;14.45;;;7.40;99.90;;;;;;5046277;28;20536;-42
2022/04/16 03:49:37;;;;;;;19.45;15.02;;;7.40;99.90;;;;;;5045727;28;20025;-44
2022/04/16 03:52:03;;;;;;;18.45;14.70;;;7.40;99.90;;;;;;5045514;28;20051;-43
2022/04/16 04:00:00;;;;;;;20.02;16.25;;;7.30;99.90;;;;;;5046085;28;20520;-42
2022/04/16 04:02:28;;;;;;;19.10;15.55;;;7.30;99.90;;;;;;5045419;28;20047;-43
2022/04/16 04:04:54;;;;;;;20.15;16.02;;;7.30;99.90;;;;;;5045955;28;20057;-44
2022/04/16 04:07:23;;;;;;;21.95;17.67;;;7.30;99.90;;;;;;5045321;28;20025;-44
2022/04/16 04:09:49;;;;;;;21.55;15.68;;;7.20;99.90;;;;;;5045885;28;20029;-41
2022/04/16 04:12:15;;;;;;;22.40;16.88;;;7.20;99.90;;;;;;5044680;28;21081;-41
2022/04/16 04:14:45;;;;;;;18.92;14.38;;;7.20;99.90;;;;;;5045680;28;20029;-43
2022/04/16 04:17:12;;;;;;;20.10;15.77;;;7.20;99.90;;;;;;5046135;28;20017;-43
2022/04/16 04:19:40;;;;;;;20.45;16.60;;;7.20;99.90;;;;;;5045062;28;20172;-42
2022/04/16 04:22:07;;;;;;;18.45;15.18;;;7.20;99.90;;;;;;5046059;28;20087;-43
2022/04/16 04:24:33;;;;;;;16.33;14.55;;;7.10;99.90;;;;;;5045844;28;20056;-43
2022/04/16 04:27:00;;;;;;;19.70;16.08;;;7.10;99.90;;;;;;5045138;28;20029;-41
2022/04/16 04:29:27;;;;;;;23.92;15.98;;;7.10;99.90;;;;;;5045248;28;20033;-42
2022/04/16 04:32:02;;;;;;;23.73;17.40;;;7.10;99.90;;;;;;5045453;28;20396;-44
2022/04/16 04:34:28;;;;;;;23.45;17.65;;;7.10;99.90;;;;;;5044295;28;20032;-42
2022/04/16 04:36:53;;;;;;;21.02;17.48;;;7.10;99.90;;;;;;5046115;28;20028;-44
2022/04/16 04:39:19;;;;;;;19.52;15.60;;;7.10;99.90;;;;;;5045633;28;20021;-43
2022/04/16 04:41:44;;;;;;;19.75;16.23;;;7.10;99.90;;;;;;5044474;28;20066;-42
2022/04/16 04:44:14;;;;;;;19.50;15.77;;;7.10;99.90;;;;;;5045627;28;20028;-42
2022/04/16 04:46:41;;;;;;;19.98;16.27;;;7.10;99.90;;;;;;5045933;28;20025;-42
2022/04/16 04:49:11;;;;;;;19.75;15.73;;;7.10;99.90;;;;;;5045054;28;20055;-43
2022/04/16 04:51:39;;;;;;;18.63;14.85;;;7.10;99.90;;;;;;5045468;28;20526;-42
2022/04/16 04:54:06;;;;;;;19.90;15.68;;;7.10;99.90;;;;;;5045194;28;20024;-42
2022/04/16 04:56:32;;;;;;;19.33;15.50;;;7.10;99.90;;;;;;5044830;28;20423;-42
2022/04/16 04:58:57;;;;;;;20.95;15.70;;;7.10;99.90;;;;;;5045349;28;20045;-43
2022/04/16 05:01:23;;;;;;;21.38;16.55;;;7.10;99.90;;;;;;5044349;28;20024;-42
2022/04/16 05:03:49;;;;;;;18.80;15.05;;;7.10;99.90;;;;;;5047645;28;20074;-42
2022/04/16 05:06:14;;;;;;;22.80;16.50;;;7.10;99.90;;;;;;5048895;28;20032;-44
2022/04/16 05:08:40;;;;;;;20.75;16.55;;;7.10;99.90;;;;;;5047975;28;20477;-43
2022/04/16 05:11:06;;;;;;;25.08;18.15;;;7.10;99.90;;;;;;5048793;28;20037;-42
2022/04/16 05:13:31;;;;;;;21.58;17.02;;;7.10;99.90;;;;;;5048841;28;20112;-41
2022/04/16 05:15:57;;;;;;;25.45;19.15;;;7.10;99.90;;;;;;5048373;28;20064;-42
2022/04/16 05:18:22;;;;;;;24.10;18.23;;;7.10;99.90;;;;;;5048827;28;20025;-42
2022/04/16 05:20:48;;;;;;;22.35;17.05;;;7.10;99.90;;;;;;5048883;28;20053;-43
2022/04/16 05:23:13;;;;;;;22.27;17.48;;;7.20;99.90;;;;;;5047601;28;20120;-43
2022/04/16 05:25:39;;;;;;;22.63;17.13;;;7.20;99.90;;;;;;5048385;28;20036;-42
2022/04/16 05:28:04;;;;;;;22.73;18.05;;;7.20;99.90;;;;;;5049578;28;20039;-43
2022/04/16 05:30:44;;;;;;;24.33;19.05;;;7.20;99.90;;;;;;5047135;28;20055;-41
2022/04/16 05:35:56;;;;;;;27.30;21.08;;;7.20;99.90;;;;;;5036979;28;20047;-40
2022/04/16 05:38:22;;;;;;;28.52;21.95;;;7.30;99.90;;;;;;5047437;28;20116;-44
2022/04/16 05:40:47;;;;;;;34.63;23.08;;;7.30;99.90;;;;;;5047804;28;20021;-42
2022/04/16 05:43:13;;;;;;;31.55;23.45;;;7.30;99.90;;;;;;5048413;28;20037;-43
2022/04/16 05:45:38;;;;;;;29.92;22.67;;;7.40;99.90;;;;;;5047231;28;20025;-43
2022/04/16 05:48:04;;;;;;;32.40;22.83;;;7.40;99.90;;;;;;5048459;28;20774;-42
2022/04/16 05:50:29;;;;;;;31.63;23.77;;;7.40;99.90;;;;;;5046830;28;20039;-43
2022/04/16 05:52:55;;;;;;;29.40;23.63;;;7.50;99.90;;;;;;5048339;28;20048;-47
2022/04/16 05:55:24;;;;;;;30.75;23.05;;;7.50;99.90;;;;;;5047209;28;20032;-42
2022/04/16 05:57:49;;;;;;;31.05;23.35;;;7.60;99.90;;;;;;5047358;28;20025;-42
2022/04/16 06:00:15;;;;;;;35.08;24.02;;;7.60;99.90;;;;;;5048222;28;20029;-42
2022/04/16 06:02:42;;;;;;;37.33;25.60;;;7.60;99.90;;;;;;5047857;28;20106;-43
2022/04/16 06:05:08;;;;;;;29.35;23.73;;;7.70;99.90;;;;;;5047590;28;20017;-43
2022/04/16 06:07:33;;;;;;;27.05;20.38;;;7.70;99.90;;;;;;5046937;28;20032;-42
2022/04/16 06:09:59;;;;;;;30.73;24.05;;;7.80;99.90;;;;;;5047688;28;20047;-43
2022/04/16 06:12:26;;;;;;;29.40;21.52;;;7.80;99.90;;;;;;5046757;28;20532;-42
2022/04/16 06:14:52;;;;;;;32.05;24.35;;;7.90;99.90;;;;;;5047254;28;20021;-41
2022/04/16 06:17:18;;;;;;;34.38;25.02;;;7.90;99.90;;;;;;5047636;28;20043;-43
2022/04/16 06:19:43;;;;;;;28.67;22.25;;;8.00;99.90;;;;;;5046370;28;20789;-41
2022/04/16 06:22:11;;;;;;;29.00;23.65;;;8.00;99.90;;;;;;5047678;28;20045;-43
2022/04/16 06:24:41;;;;;;;31.15;23.88;;;8.10;99.90;;;;;;5047137;28;20033;-42
2022/04/16 06:27:06;;;;;;;31.45;24.25;;;8.20;99.90;;;;;;5046990;28;20048;-41
2022/04/16 06:29:32;;;;;;;28.58;22.42;;;8.30;99.90;;;;;;5047046;28;20878;-43
2022/04/16 06:31:58;;;;;;;34.67;25.75;;;8.30;99.90;;;;;;5047130;28;20085;-43
2022/04/16 06:34:24;;;;;;;32.05;25.08;;;8.30;99.90;;;;;;5046891;28;20451;-43
2022/04/16 06:36:50;;;;;;;32.08;24.33;;;8.40;99.90;;;;;;5048276;28;20476;-42
2022/04/16 06:39:15;;;;;;;33.22;24.40;;;8.40;99.90;;;;;;5047356;28;20131;-42
2022/04/16 06:41:41;;;;;;;33.33;25.08;;;8.50;99.90;;;;;;5046402;28;20112;-42
2022/04/16 06:44:06;;;;;;;30.50;24.58;;;8.60;99.90;;;;;;5047143;28;20098;-42
2022/04/16 06:46:35;;;;;;;31.90;23.77;;;8.60;99.90;;;;;;5046862;28;20040;-43
2022/04/16 06:49:00;;;;;;;27.75;23.45;;;8.70;99.90;;;;;;5046379;28;20029;-42
2022/04/16 06:51:26;;;;;;;29.02;23.02;;;8.70;99.90;;;;;;5042253;28;20542;-42
2022/04/16 06:53:54;;;;;;;29.60;23.13;;;8.80;99.90;;;;;;5045060;28;20412;-42
2022/04/16 06:56:23;;;;;;;25.35;20.00;;;8.90;99.90;;;;;;5045960;28;20031;-43
2022/04/16 06:58:49;;;;;;;27.42;20.70;;;9.00;99.90;;;;;;5045852;28;20052;-44
2022/04/16 07:01:15;;;;;;;27.15;21.77;;;9.10;99.90;;;;;;5044796;28;20483;-43
2022/04/16 07:03:40;;;;;;;29.75;22.63;;;9.10;99.90;;;;;;5045948;28;20045;-44
2022/04/16 07:06:06;;;;;;;25.95;20.80;;;9.20;99.90;;;;;;5046106;28;20029;-43
2022/04/16 07:08:31;;;;;;;24.85;19.75;;;9.20;99.90;;;;;;5045004;28;20488;-43
2022/04/16 07:10:57;;;;;;;28.08;20.27;;;9.30;99.90;;;;;;5045972;28;20512;-42
2022/04/16 07:13:22;;;;;;;29.05;21.55;;;9.30;99.90;;;;;;5045536;28;20021;-44
2022/04/16 07:15:48;;;;;;;27.55;21.30;;;9.30;99.90;;;;;;5044362;28;20551;-43
2022/04/16 07:18:13;;;;;;;22.35;18.58;;;9.30;99.90;;;;;;5045797;28;20084;-42
2022/04/16 07:20:40;;;;;;;26.13;20.23;;;9.40;99.90;;;;;;5045027;28;20479;-43
2022/04/16 07:23:06;;;;;;;30.65;21.48;;;9.40;99.90;;;;;;5045080;28;20033;-43
2022/04/16 07:25:33;;;;;;;26.58;20.33;;;9.40;99.90;;;;;;5044770;28;20546;-44
2022/04/16 07:27:59;;;;;;;27.13;19.92;;;9.50;99.90;;;;;;5045924;28;20029;-43
2022/04/16 07:30:24;;;;;;;25.80;20.73;;;9.50;99.90;;;;;;5044584;28;20025;-45
2022/04/16 07:32:51;;;;;;;25.38;20.27;;;9.60;99.90;;;;;;5045832;28;20520;-43
2022/04/16 07:35:16;;;;;;;24.77;18.77;;;9.60;99.90;;;;;;5045494;28;20035;-43
2022/04/16 07:37:42;;;;;;;24.45;18.98;;;9.60;99.90;;;;;;5044404;28;20472;-43
2022/04/16 07:40:08;;;;;;;25.88;19.85;;;9.70;99.90;;;;;;5045492;28;20096;-43
2022/04/16 07:42:33;;;;;;;26.58;20.75;;;9.70;99.90;;;;;;5045598;28;20116;-43
2022/04/16 07:44:59;;;;;;;25.40;18.77;;;9.70;99.90;;;;;;5044406;28;20561;-43
2022/04/16 07:47:25;;;;;;;28.25;20.30;;;9.70;99.90;;;;;;5044805;28;20037;-43
2022/04/16 07:49:50;;;;;;;25.65;18.83;;;9.80;99.90;;;;;;5044304;28;20042;-42
2022/04/16 07:52:16;;;;;;;23.40;18.60;;;9.80;99.90;;;;;;5044788;28;20025;-43
2022/04/16 07:54:41;;;;;;;24.48;19.83;;;9.90;99.90;;;;;;5045233;28;20025;-44
2022/04/16 07:57:07;;;;;;;26.45;19.85;;;9.90;99.90;;;;;;5044427;28;20195;-43
2022/04/16 07:59:33;;;;;;;25.77;18.80;;;9.90;99.90;;;;;;5044244;28;20751;-43
2022/04/16 08:01:58;;;;;;;24.73;18.90;;;10.00;99.90;;;;;;5046169;28;20485;-43
2022/04/16 08:04:27;;;;;;;23.20;18.42;;;10.00;99.90;;;;;;5044409;28;20029;-41
2022/04/16 08:06:52;;;;;;;21.33;17.02;;;10.00;99.90;;;;;;5046108;28;20025;-43
2022/04/16 08:09:18;;;;;;;22.67;17.75;;;10.10;99.90;;;;;;5045275;28;20485;-43
2022/04/16 08:11:46;;;;;;;23.67;17.40;;;10.10;99.90;;;;;;5044791;28;20174;-43
2022/04/16 08:14:12;;;;;;;20.00;16.50;;;10.20;99.90;;;;;;5041094;28;20036;-42
2022/04/16 08:16:38;;;;;;;22.02;17.38;;;10.20;99.90;;;;;;5044576;28;20067;-43
2022/04/16 08:19:03;;;;;;;23.85;17.45;;;10.30;99.90;;;;;;5044287;28;20098;-42
2022/04/16 08:21:30;;;;;;;21.05;16.55;;;10.40;99.90;;;;;;5044153;28;20468;-43
2022/04/16 08:24:04;;;;;;;21.27;16.77;;;10.50;99.90;;;;;;5045254;28;20059;-40
2022/04/16 08:26:30;;;;;;;21.52;16.75;;;10.50;99.90;;;;;;5043143;28;20029;-44
2022/04/16 08:28:56;;;;;;;21.90;17.80;;;10.60;99.90;;;;;;5045370;28;20037;-44
2022/04/16 08:31:21;;;;;;;19.17;15.52;;;10.60;99.90;;;;;;5044587;28;20570;-42
2022/04/16 08:33:47;;;;;;;22.45;16.50;;;10.70;99.90;;;;;;5044070;28;20024;-42
2022/04/16 08:36:12;;;;;;;20.10;15.75;;;10.70;99.90;;;;;;5045181;28;20738;-43
2022/04/16 08:38:38;;;;;;;20.85;15.80;;;10.80;99.90;;;;;;5047125;28;20771;-43
2022/04/16 08:41:05;;;;;;;17.58;14.02;;;10.80;99.90;;;;;;5047620;28;20037;-44
2022/04/16 08:43:32;;;;;;;18.40;14.30;;;10.90;99.90;;;;;;5047963;28;20029;-42
2022/04/16 08:45:59;;;;;;;18.67;14.23;;;11.00;99.90;;;;;;5048355;28;20049;-43
2022/04/16 08:48:25;;;;;;;18.55;14.35;;;11.10;99.90;;;;;;5047144;28;20559;-41
2022/04/16 08:50:51;;;;;;;17.13;13.85;;;11.10;99.90;;;;;;5048255;28;20043;-42
2022/04/16 08:53:17;;;;;;;18.17;13.80;;;11.20;99.90;;;;;;5048855;28;20468;-43
2022/04/16 08:55:42;;;;;;;15.10;13.07;;;11.20;99.90;;;;;;5047623;28;20675;-42
2022/04/16 08:58:08;;;;;;;15.23;12.05;;;11.30;99.90;;;;;;5048096;28;20053;-44
2022/04/16 09:00:33;;;;;;;13.38;11.35;;;11.40;99.90;;;;;;5060138;28;20029;-43
2022/04/16 09:03:03;;;;;;;16.00;12.65;;;11.40;99.90;;;;;;5047950;28;20037;-42
2022/04/16 09:05:29;;;;;;;16.35;12.02;;;11.50;99.90;;;;;;5047830;28;20017;-43
2022/04/16 09:07:56;;;;;;;15.85;12.55;;;11.60;99.90;;;;;;5048263;28;20385;-43
2022/04/16 09:10:26;;;;;;;13.88;11.27;;;11.70;99.90;;;;;;5048222;28;20068;-42
2022/04/16 09:12:54;;;;;;;15.13;12.68;;;11.80;99.90;;;;;;5048333;28;20032;-43
2022/04/16 09:15:21;;;;;;;13.95;11.13;;;11.90;99.90;;;;;;5047287;28;20578;-42
2022/04/16 09:18:01;;;;;;;13.48;11.23;;;12.00;99.90;;;;;;5048129;28;20037;-43
2022/04/16 09:20:37;;;;;;;14.18;10.55;;;12.00;99.90;;;;;;5048172;28;20399;-43
2022/04/16 09:23:18;;;;;;;10.48;9.18;;;12.10;99.90;;;;;;5047256;28;20052;-43
2022/04/16 09:25:44;;;;;;;14.35;12.35;;;12.20;99.90;;;;;;5048312;28;20036;-43
2022/04/16 09:28:09;;;;;;;14.52;11.88;;;12.20;99.90;;;;;;5048263;28;20087;-42
2022/04/16 09:30:37;;;;;;;13.60;10.95;;;12.30;99.90;;;;;;5046973;28;20895;-43
2022/04/16 09:33:05;;;;;;;12.68;10.00;;;12.20;99.90;;;;;;5047567;28;20535;-42
2022/04/16 09:35:33;;;;;;;15.27;11.68;;;12.20;99.90;;;;;;5047270;28;20021;-43
2022/04/16 09:38:04;;;;;;;13.52;10.25;;;12.30;99.90;;;;;;5047276;28;20476;-43
2022/04/16 09:40:31;;;;;;;14.48;11.60;;;12.30;99.90;;;;;;5047635;28;20068;-43
2022/04/16 09:43:00;;;;;;;12.68;10.07;;;12.30;99.90;;;;;;5046847;28;20041;-44
2022/04/16 09:45:27;;;;;;;13.75;11.95;;;12.40;99.90;;;;;;5046978;28;20025;-43
2022/04/16 09:47:53;;;;;;;15.23;10.98;;;12.50;99.90;;;;;;5047900;28;20029;-43
2022/04/16 09:50:21;;;;;;;13.70;10.60;;;12.50;99.90;;;;;;5046497;28;20024;-43
2022/04/16 09:52:58;;;;;;;13.48;10.02;;;12.50;99.90;;;;;;5046704;28;20086;-44
2022/04/16 09:55:26;;;;;;;10.43;8.82;;;12.50;99.90;;;;;;5047069;28;20028;-43
2022/04/16 09:58:02;;;;;;;10.15;9.00;;;12.60;99.90;;;;;;5046608;28;20020;-42
2022/04/16 10:00:29;;;;;;;9.48;7.75;;;12.70;99.90;;;;;;5044980;28;20023;-43
2022/04/16 10:02:55;;;;;;;9.77;8.43;;;12.80;99.90;;;;;;5046845;28;20045;-44
2022/04/16 10:05:22;;;;;;;12.63;10.35;;;12.80;99.90;;;;;;5046955;28;20101;-43
2022/04/16 10:07:48;;;;;;;12.50;10.40;;;12.90;99.90;;;;;;5047475;28;20036;-43
2022/04/16 10:13:11;;;;;;;11.23;9.75;;;13.10;99.90;;;;;;5046237;28;20033;-44
2022/04/16 10:15:37;;;;;;;13.25;9.73;;;13.20;99.90;;;;;;5047163;28;20065;-43
2022/04/16 10:18:03;;;;;;;12.23;9.57;;;13.30;99.90;;;;;;5046681;28;20053;-44
2022/04/16 10:20:28;;;;;;;11.38;8.95;;;13.40;99.90;;;;;;5046706;28;20027;-44
2022/04/16 10:23:03;;;;;;;11.00;9.07;;;13.40;99.90;;;;;;5047507;28;20069;-44
2022/04/16 10:25:34;;;;;;;10.77;8.63;;;13.40;99.90;;;;;;5045445;28;20531;-43
2022/04/16 10:28:05;;;;;;;9.85;7.63;;;13.50;99.90;;;;;;5047001;28;20036;-43
2022/04/16 10:30:41;;;;;;;9.13;7.45;;;13.50;99.90;;;;;;5046652;28;20033;-44
2022/04/16 10:33:31;;;;;;;8.63;7.32;;;13.50;99.90;;;;;;5046191;28;20044;-43
2022/04/16 10:35:59;;;;;;;7.45;6.65;;;13.40;99.90;;;;;;5043499;28;20771;-43
2022/04/16 10:38:32;;;;;;;7.47;6.50;;;13.40;99.90;;;;;;5046599;28;20052;-44
2022/04/16 10:41:00;;;;;;;8.38;6.75;;;13.40;99.90;;;;;;5045545;28;20021;-42
2022/04/16 10:43:32;;;;;;;7.72;6.85;;;13.40;99.90;;;;;;5046304;28;20699;-43
2022/04/16 10:46:06;;;;;;;7.93;6.22;;;13.40;99.90;;;;;;5046087;28;20021;-43
2022/04/16 10:48:42;;;;;;;8.45;6.80;;;13.40;99.90;;;;;;5045756;28;20645;-41
2022/04/16 10:51:10;;;;;;;7.35;6.43;;;13.50;99.90;;;;;;5046784;28;20116;-42
2022/04/16 10:53:37;;;;;;;6.82;5.80;;;13.60;99.90;;;;;;5045658;28;20025;-43
2022/04/16 10:56:13;;;;;;;6.32;5.10;;;13.70;99.90;;;;;;5046346;28;20021;-43
2022/04/16 10:58:46;;;;;;;6.65;4.90;;;13.80;99.90;;;;;;5045641;28;20100;-43
2022/04/16 11:01:23;;;;;;;5.45;4.70;;;13.90;99.90;;;;;;5044888;28;20072;-43
2022/04/16 11:03:50;;;;;;;7.45;5.40;;;14.00;99.90;;;;;;5045557;28;20134;-43
2022/04/16 11:06:17;;;;;;;5.93;4.97;;;14.00;99.70;;;;;;5045907;28;20025;-44
2022/04/16 11:08:45;;;;;;;5.68;4.53;;;14.00;99.60;;;;;;5045028;28;20064;-43
2022/04/16 11:11:13;;;;;;;5.03;4.53;;;13.90;99.40;;;;;;5045707;28;20500;-42
2022/04/16 11:13:39;;;;;;;5.50;4.80;;;14.00;98.40;;;;;;5044181;28;20021;-44
2022/04/16 11:16:06;;;;;;;4.43;4.03;;;13.90;98.30;;;;;;5044895;28;20385;-43
2022/04/16 11:18:44;;;;;;;6.13;4.95;;;13.90;98.10;;;;;;5045297;28;20032;-42
2022/04/16 11:21:29;;;;;;;7.07;4.95;;;13.90;97.90;;;;;;5045120;28;20435;-43
2022/04/16 11:23:54;;;;;;;5.75;4.10;;;13.90;97.90;;;;;;5046261;28;20044;-43
2022/04/16 11:34:42;;;;;;;3.88;3.40;;;14.10;97.00;;;;;;5026305;28;20528;-42
2022/04/16 11:37:08;;;;;;;4.00;3.60;;;14.20;96.70;;;;;;5039813;28;20060;-43
2022/04/16 11:39:34;;;;;;;6.22;4.78;;;14.30;96.60;;;;;;5045492;28;20481;-43
2022/04/16 11:42:05;;;;;;;5.82;4.45;;;14.30;96.10;;;;;;5045592;28;20473;-42
2022/04/16 11:44:46;;;;;;;6.80;5.65;;;14.40;96.40;;;;;;5044958;28;20103;-42
2022/04/16 11:47:20;;;;;;;5.95;4.40;;;14.40;96.00;;;;;;5045347;28;20039;-43
2022/04/16 11:49:49;;;;;;;6.18;4.53;;;14.40;95.70;;;;;;5044868;28;20060;-43
2022/04/16 11:52:15;;;;;;;5.68;4.43;;;14.40;95.60;;;;;;5045574;28;20378;-43
2022/04/16 11:54:41;;;;;;;4.78;4.07;;;14.40;95.20;;;;;;5045211;28;20614;-42
2022/04/16 11:57:07;;;;;;;5.30;4.25;;;14.50;95.30;;;;;;5045278;28;20056;-42
2022/04/16 11:59:34;;;;;;;4.20;3.80;;;14.60;94.80;;;;;;5044432;28;20614;-43
2022/04/16 12:02:09;;;;;;;4.00;3.28;;;14.60;95.00;;;;;;5045210;28;20140;-43
2022/04/16 12:04:42;;;;;;;5.57;4.20;;;14.60;95.00;;;;;;5044694;28;20055;-43
2022/04/16 12:07:17;;;;;;;5.60;4.43;;;14.70;95.10;;;;;;5045471;28;20476;-42
2022/04/16 12:09:47;;;;;;;5.10;4.47;;;14.80;94.10;;;;;;5045420;28;20033;-44
2022/04/16 12:12:18;;;;;;;4.78;3.95;;;14.80;93.00;;;;;;5046036;28;20143;-42
2022/04/16 12:14:51;;;;;;;4.45;3.60;;;14.80;93.10;;;;;;5049197;28;20243;-42
2022/04/16 12:17:24;;;;;;;3.95;3.45;;;14.80;93.20;;;;;;5049385;28;20135;-43
2022/04/16 12:20:06;;;;;;;4.20;3.50;;;14.90;93.30;;;;;;5037712;28;20025;-43
2022/04/16 12:22:33;;;;;;;4.13;3.60;;;14.90;93.80;;;;;;5048251;28;20021;-42
2022/04/16 12:25:13;;;;;;;5.47;3.50;;;15.00;93.10;;;;;;5038205;28;20021;-43
2022/04/16 12:27:53;;;;;;;5.72;3.10;;;15.00;92.60;;;;;;5049518;28;20032;-43
2022/04/16 12:30:31;;;;;;;4.30;3.55;;;15.10;92.20;;;;;;5040189;28;20060;-43
2022/04/16 12:33:10;;;;;;;3.50;3.13;;;15.10;91.70;;;;;;5048598;28;20017;-42
2022/04/16 12:35:37;;;;;;;4.57;3.08;;;15.10;91.90;;;;;;5048977;28;20029;-42
2022/04/16 12:38:03;;;;;;;4.55;3.85;;;15.20;91.80;;;;;;5048763;28;20031;-42
2022/04/16 12:40:30;;;;;;;4.93;3.80;;;15.20;91.70;;;;;;5037124;28;20060;-42
2022/04/16 12:42:57;;;;;;;4.28;3.88;;;15.20;91.50;;;;;;5049089;28;20033;-41
2022/04/16 12:45:24;;;;;;;6.55;4.57;;;15.30;91.20;;;;;;5048498;28;20043;-43
2022/04/16 12:47:50;;;;;;;6.95;4.70;;;15.30;90.40;;;;;;5048206;28;20029;-43
2022/04/16 12:50:16;;;;;;;4.40;4.00;;;15.30;89.50;;;;;;5048713;28;20021;-42
2022/04/16 12:52:42;;;;;;;6.63;4.82;;;15.30;88.40;;;;;;5048516;28;20029;-42
2022/04/16 12:55:08;;;;;;;5.28;4.30;;;15.30;87.40;;;;;;5048849;28;20376;-42
2022/04/16 12:57:34;;;;;;;3.88;3.33;;;15.30;86.50;;;;;;5047519;28;20040;-44
2022/04/16 13:00:00;;;;;;;4.15;3.00;;;15.30;87.40;;;;;;5048362;28;20387;-43
2022/04/16 13:02:25;;;;;;;3.53;2.67;;;15.40;86.10;;;;;;5047959;28;20059;-42
2022/04/16 13:04:51;;;;;;;3.38;3.08;;;15.40;85.00;;;;;;5049161;28;20024;-42